createdAt,value
2018-06-27T00:02:14.020Z,22.11
2018-06-27T00:04:40.341Z,22.10
2018-06-27T00:07:06.667Z,22.09
2018-06-27T00:09:33.035Z,22.08
2018-06-27T00:11:59.451Z,22.09
2018-06-27T00:14:25.904Z,22.09
2018-06-27T00:16:52.278Z,22.06
2018-06-27T00:19:18.644Z,22.08
2018-06-27T00:21:44.960Z,22.06
2018-06-27T00:24:11.337Z,22.06
2018-06-27T00:26:37.807Z,22.05
2018-06-27T00:29:04.127Z,22.04
2018-06-27T00:31:30.710Z,22.06
2018-06-27T00:33:57.264Z,22.02
2018-06-27T00:36:23.803Z,22.05
2018-06-27T00:38:50.298Z,22.02
2018-06-27T00:41:16.688Z,22.02
2018-06-27T00:43:43.081Z,22.03
2018-06-27T00:46:09.624Z,22.02
2018-06-27T00:48:36.029Z,21.97
2018-06-27T00:51:02.394Z,22.02
2018-06-27T00:53:28.745Z,21.98
2018-06-27T00:55:55.115Z,21.97
2018-06-27T00:58:21.432Z,21.95
2018-06-27T01:00:55.279Z,21.95
2018-06-27T01:03:21.658Z,21.99
2018-06-27T01:05:47.979Z,21.94
2018-06-27T01:08:14.413Z,21.80
2018-06-27T01:21:21.250Z,21.50
2018-06-27T01:23:47.757Z,21.52
2018-06-27T01:26:14.288Z,21.52
2018-06-27T01:28:40.608Z,21.51
2018-06-27T01:31:06.974Z,21.46
2018-06-27T01:33:33.455Z,21.49
2018-06-27T01:36:00.050Z,21.51
2018-06-27T01:38:26.411Z,21.50
2018-06-27T01:40:52.776Z,21.45
2018-06-27T01:43:19.102Z,21.51
2018-06-27T01:48:24.315Z,21.44
2018-06-27T01:50:50.676Z,21.43
2018-06-27T01:53:16.999Z,21.46
2018-06-27T01:55:43.353Z,21.44
2018-06-27T01:58:09.659Z,21.45
2018-06-27T02:00:36.019Z,21.45
2018-06-27T02:03:02.391Z,21.40
2018-06-27T02:05:28.728Z,21.42
2018-06-27T02:07:55.056Z,21.37
2018-06-27T02:10:21.380Z,21.40
2018-06-27T02:12:47.744Z,21.40
2018-06-27T02:15:14.085Z,21.42
2018-06-27T02:17:40.466Z,21.37
2018-06-27T02:20:06.805Z,21.38
2018-06-27T02:22:33.180Z,21.33
2018-06-27T02:24:59.579Z,21.36
2018-06-27T02:27:26.076Z,21.38
2018-06-27T02:29:52.365Z,21.34
2018-06-27T02:32:18.712Z,21.34
2018-06-27T02:34:45.096Z,21.36
2018-06-27T02:37:11.411Z,21.33
2018-06-27T02:39:37.763Z,21.33
2018-06-27T02:42:04.087Z,21.32
2018-06-27T02:44:30.414Z,21.28
2018-06-27T02:46:56.832Z,21.31
2018-06-27T02:49:23.187Z,21.29
2018-06-27T02:51:49.821Z,21.27
2018-06-27T02:54:16.200Z,21.28
2018-06-27T02:56:42.668Z,21.23
2018-06-27T02:59:09.080Z,21.24
2018-06-27T03:01:35.453Z,21.24
2018-06-27T03:04:01.860Z,21.25
2018-06-27T03:06:28.179Z,21.22
2018-06-27T03:08:54.527Z,21.23
2018-06-27T03:11:20.855Z,21.28
2018-06-27T03:13:47.323Z,21.20
2018-06-27T03:16:13.733Z,21.29
2018-06-27T03:18:40.055Z,21.27
2018-06-27T03:21:06.637Z,21.32
2018-06-27T03:23:32.991Z,21.34
2018-06-27T03:25:59.402Z,21.38
2018-06-27T03:28:26.068Z,21.37
2018-06-27T03:30:52.392Z,21.38
2018-06-27T03:33:18.709Z,21.43
2018-06-27T03:35:45.030Z,21.43
2018-06-27T03:38:11.401Z,21.44
2018-06-27T03:40:37.740Z,21.47
2018-06-27T03:43:04.087Z,21.45
2018-06-27T03:45:30.480Z,21.48
2018-06-27T03:47:56.869Z,21.51
2018-06-27T03:50:23.172Z,21.50
2018-06-27T03:52:50.342Z,21.53
2018-06-27T03:55:16.699Z,21.50
2018-06-27T03:57:43.080Z,21.47
2018-06-27T04:00:09.492Z,21.50
2018-06-27T04:02:35.811Z,21.53
2018-06-27T04:05:02.283Z,21.51
2018-06-27T04:07:28.625Z,21.50
2018-06-27T04:09:54.959Z,21.52
2018-06-27T04:12:21.275Z,21.50
2018-06-27T04:14:47.640Z,21.50
2018-06-27T04:17:13.972Z,21.51
2018-06-27T04:19:40.654Z,21.52
2018-06-27T04:22:06.993Z,21.51
2018-06-27T04:24:33.376Z,21.51
2018-06-27T04:26:59.692Z,21.54
2018-06-27T04:29:26.021Z,21.55
2018-06-27T04:31:52.472Z,21.39
2018-06-27T04:34:18.784Z,21.46
2018-06-27T04:36:45.146Z,21.52
2018-06-27T04:39:11.622Z,21.53
2018-06-27T04:41:38.171Z,21.54
2018-06-27T04:44:04.514Z,21.54
2018-06-27T04:46:31.227Z,21.57
2018-06-27T04:48:57.723Z,21.58
2018-06-27T04:51:24.303Z,21.59
2018-06-27T04:53:50.671Z,21.63
2018-06-27T04:56:18.512Z,21.61
2018-06-27T04:58:44.924Z,21.53
2018-06-27T05:01:11.254Z,21.57
2018-06-27T05:03:37.626Z,21.55
2018-06-27T05:06:04.041Z,21.54
2018-06-27T05:08:30.590Z,21.63
2018-06-27T05:10:57.160Z,21.61
2018-06-27T05:13:23.578Z,21.62
2018-06-27T05:15:50.029Z,21.63
2018-06-27T05:18:16.576Z,21.65
2018-06-27T05:20:43.255Z,21.62
2018-06-27T05:23:09.753Z,21.69
2018-06-27T05:25:36.155Z,21.69
2018-06-27T05:28:02.544Z,21.70
2018-06-27T05:30:29.024Z,21.78
2018-06-27T05:32:55.507Z,21.78
2018-06-27T05:35:21.994Z,21.79
2018-06-27T05:37:48.362Z,21.79
2018-06-27T05:40:14.729Z,21.81
2018-06-27T05:42:41.075Z,21.80
2018-06-27T05:45:07.684Z,21.85
2018-06-27T05:47:34.460Z,21.85
2018-06-27T05:50:01.845Z,21.99
2018-06-27T05:52:28.719Z,21.96
2018-06-27T05:54:55.221Z,21.97
2018-06-27T05:57:21.831Z,21.96
2018-06-27T05:59:48.322Z,21.99
2018-06-27T06:02:14.864Z,22.08
2018-06-27T06:04:41.451Z,22.06
2018-06-27T06:07:08.097Z,22.08
2018-06-27T06:09:34.424Z,22.09
2018-06-27T06:12:01.121Z,22.14
2018-06-27T06:14:27.750Z,22.17
2018-06-27T06:16:54.204Z,22.14
2018-06-27T06:19:20.621Z,22.25
2018-06-27T06:21:47.730Z,22.23
2018-06-27T06:24:14.106Z,22.26
2018-06-27T06:26:40.474Z,22.32
2018-06-27T06:29:07.650Z,22.26
2018-06-27T06:31:34.156Z,22.33
2018-06-27T06:34:00.512Z,22.31
2018-06-27T06:36:27.327Z,22.32
2018-06-27T06:38:53.883Z,22.38
2018-06-27T06:41:20.263Z,22.40
2018-06-27T06:43:48.201Z,22.47
2018-06-27T06:46:14.698Z,22.56
2018-06-27T06:48:41.150Z,22.56
2018-06-27T06:51:07.667Z,22.66
2018-06-27T06:53:34.017Z,22.53
2018-06-27T06:56:00.571Z,22.53
2018-06-27T06:58:27.600Z,22.70
2018-06-27T07:00:54.072Z,22.68
2018-06-27T07:03:20.815Z,22.69
2018-06-27T07:05:47.226Z,22.72
2018-06-27T07:08:13.851Z,22.68
2018-06-27T07:10:41.412Z,22.79
2018-06-27T07:13:07.988Z,22.81
2018-06-27T07:15:34.397Z,22.79
2018-06-27T07:18:00.764Z,22.82
2018-06-27T07:20:27.753Z,22.80
2018-06-27T07:22:54.409Z,22.81
2018-06-27T07:25:21.379Z,22.84
2018-06-27T07:27:47.866Z,22.80
2018-06-27T07:30:14.246Z,22.81
2018-06-27T07:32:40.632Z,22.82
2018-06-27T07:35:07.759Z,22.84
2018-06-27T07:37:34.312Z,22.90
2018-06-27T07:50:52.951Z,22.87
2018-06-27T07:53:19.839Z,22.91
2018-06-27T07:55:46.815Z,22.96
2018-06-27T07:58:13.338Z,22.99
2018-06-27T08:00:39.832Z,23.06
2018-06-27T08:03:06.280Z,23.09
2018-06-27T08:05:33.594Z,23.11
2018-06-27T08:08:00.060Z,23.07
2018-06-27T08:10:28.751Z,23.06
2018-06-27T08:12:55.149Z,22.97
2018-06-27T08:15:22.418Z,22.98
2018-06-27T08:17:48.983Z,22.97
2018-06-27T08:20:15.354Z,22.93
2018-06-27T08:22:41.735Z,22.93
2018-06-27T08:25:08.289Z,22.86
2018-06-27T08:27:34.741Z,22.87
2018-06-27T08:30:01.124Z,22.88
2018-06-27T08:32:30.805Z,22.87
2018-06-27T08:34:57.295Z,22.87
2018-06-27T08:37:23.720Z,22.88
2018-06-27T08:39:50.205Z,22.92
2018-06-27T08:42:16.573Z,22.93
2018-06-27T08:44:42.965Z,22.94
2018-06-27T08:47:09.465Z,23.00
2018-06-27T08:49:35.824Z,22.97
2018-06-27T08:52:02.182Z,23.06
2018-06-27T08:54:28.651Z,23.09
2018-06-27T08:56:55.205Z,23.10
2018-06-27T08:59:21.595Z,23.12
2018-06-27T09:01:47.972Z,23.09
2018-06-27T09:04:14.301Z,23.13
2018-06-27T09:06:40.701Z,23.20
2018-06-27T09:09:07.096Z,23.24
2018-06-27T09:11:33.517Z,23.24
2018-06-27T09:13:59.906Z,23.27
2018-06-27T09:16:26.324Z,23.29
2018-06-27T09:18:52.761Z,23.34
2018-06-27T09:21:19.139Z,23.36
2018-06-27T09:23:45.520Z,23.34
2018-06-27T09:26:11.949Z,23.34
2018-06-27T09:28:38.316Z,23.37
2018-06-27T09:31:04.647Z,23.42
2018-06-27T09:33:31.001Z,23.42
2018-06-27T09:35:57.362Z,23.40
2018-06-27T09:38:23.693Z,23.44
2018-06-27T09:40:50.075Z,23.53
2018-06-27T09:43:16.488Z,23.59
2018-06-27T09:45:42.867Z,23.58
2018-06-27T09:48:09.272Z,23.55
2018-06-27T09:50:35.753Z,23.56
2018-06-27T09:53:02.090Z,23.60
2018-06-27T09:55:28.409Z,23.64
2018-06-27T09:57:54.850Z,23.58
2018-06-27T10:00:21.244Z,23.60
2018-06-27T10:02:47.649Z,23.51
2018-06-27T10:05:14.005Z,23.52
2018-06-27T10:07:40.407Z,23.57
2018-06-27T10:10:06.740Z,23.54
2018-06-27T10:12:33.068Z,23.58
2018-06-27T10:14:59.464Z,23.58
2018-06-27T10:17:25.798Z,23.65
2018-06-27T10:19:52.189Z,23.69
2018-06-27T10:22:18.551Z,23.68
2018-06-27T10:24:44.947Z,23.58
2018-06-27T10:27:11.324Z,23.65
2018-06-27T10:29:37.665Z,23.66
2018-06-27T10:32:04.092Z,23.68
2018-06-27T10:34:30.528Z,23.72
2018-06-27T10:36:57.012Z,23.75
2018-06-27T10:39:23.432Z,23.68
2018-06-27T10:41:49.763Z,23.77
2018-06-27T10:44:16.368Z,23.74
2018-06-27T10:46:42.823Z,23.79
2018-06-27T10:49:09.177Z,23.75
2018-06-27T10:51:35.506Z,23.74
2018-06-27T10:54:01.885Z,23.77
2018-06-27T10:56:28.265Z,23.74
2018-06-27T10:58:54.860Z,23.74
2018-06-27T11:01:21.598Z,23.69
2018-06-27T11:03:48.480Z,23.76
2018-06-27T11:06:15.465Z,23.69
2018-06-27T11:08:42.322Z,23.71
2018-06-27T11:11:09.811Z,23.74
2018-06-27T11:13:37.453Z,23.73
2018-06-27T11:16:07.466Z,23.72
2018-06-27T11:18:34.534Z,23.70
2018-06-27T11:21:02.692Z,23.67
2018-06-27T11:23:29.807Z,23.69
2018-06-27T11:25:56.780Z,23.67
2018-06-27T11:28:23.713Z,23.66
2018-06-27T11:33:11.255Z,23.68
2018-06-27T11:38:15.947Z,23.60
2018-06-27T11:40:43.286Z,23.66
2018-06-27T11:43:13.501Z,23.61
2018-06-27T11:46:19.635Z,23.66
2018-06-27T11:48:46.743Z,23.59
2018-06-27T11:51:14.734Z,23.69
2018-06-27T11:53:46.919Z,23.70
2018-06-27T11:56:15.711Z,23.70
2018-06-27T11:58:45.545Z,23.72
2018-06-27T12:01:14.020Z,23.74
2018-06-27T12:04:12.653Z,23.70
2018-06-27T12:09:20.420Z,23.69
2018-06-27T12:11:47.349Z,23.68
2018-06-27T12:14:13.863Z,23.70
2018-06-27T12:16:40.324Z,23.65
2018-06-27T12:19:06.782Z,23.65
2018-06-27T12:21:34.189Z,23.69
2018-06-27T12:24:02.471Z,23.66
2018-06-27T12:29:06.082Z,23.61
2018-06-27T12:31:35.995Z,23.61
2018-06-27T12:37:46.090Z,23.59
2018-06-27T12:40:14.010Z,23.60
2018-06-27T12:47:59.968Z,23.54
2018-06-27T12:58:53.899Z,23.51
2018-06-27T13:27:35.474Z,23.61
2018-06-27T13:50:44.518Z,23.71
2018-06-27T13:53:15.754Z,23.70
2018-06-27T14:15:56.469Z,23.77
2018-06-27T14:21:24.391Z,23.68
2018-06-27T14:32:42.086Z,23.66
2018-06-27T14:40:22.942Z,23.54
2018-06-27T14:42:54.200Z,23.59
2018-06-27T14:45:22.809Z,23.52
2018-06-27T14:47:50.887Z,23.50
2018-06-27T14:50:21.813Z,23.45
2018-06-27T14:52:48.966Z,23.47
2018-06-27T14:57:52.261Z,23.41
2018-06-27T15:00:19.821Z,23.39
2018-06-27T15:02:46.847Z,23.38
2018-06-27T15:05:14.052Z,23.35
2018-06-27T15:07:41.867Z,23.32
2018-06-27T15:10:08.727Z,23.34
2018-06-27T15:12:35.799Z,23.37
2018-06-27T15:15:03.989Z,23.35
2018-06-27T15:17:33.768Z,23.36
2018-06-27T15:20:04.107Z,23.30
2018-06-27T15:22:32.470Z,23.34
2018-06-27T15:27:44.986Z,23.29
2018-06-27T15:30:13.531Z,23.28
2018-06-27T15:32:41.841Z,23.30
2018-06-27T15:35:08.956Z,23.28
2018-06-27T15:37:36.331Z,23.26
2018-06-27T15:40:08.409Z,23.26
2018-06-27T15:42:35.485Z,23.24
2018-06-27T15:45:02.429Z,23.24
2018-06-27T15:47:30.229Z,23.23
2018-06-27T15:49:57.760Z,23.23
2018-06-27T15:52:24.830Z,23.35
2018-06-27T15:54:52.688Z,23.27
2018-06-27T15:57:19.314Z,23.24
2018-06-27T15:59:46.331Z,23.21
2018-06-27T16:02:17.217Z,23.18
2018-06-27T16:04:46.081Z,23.17
2018-06-27T16:07:15.206Z,23.15
2018-06-27T16:09:42.257Z,23.12
2018-06-27T16:12:09.122Z,23.13
2018-06-27T16:14:36.600Z,23.09
2018-06-27T16:17:06.378Z,23.10
2018-06-27T16:19:33.635Z,23.07
2018-06-27T16:22:00.901Z,23.06
2018-06-27T16:24:28.156Z,23.06
2018-06-27T16:26:58.835Z,23.03
2018-06-27T16:29:26.129Z,23.03
2018-06-27T16:31:54.061Z,22.99
2018-06-27T16:34:20.914Z,23.00
2018-06-27T16:36:47.433Z,22.98
2018-06-27T16:39:14.204Z,22.94
2018-06-27T16:41:40.660Z,22.97
2018-06-27T16:44:07.261Z,22.96
2018-06-27T16:46:33.760Z,22.95
2018-06-27T16:49:00.279Z,22.90
2018-06-27T16:51:26.744Z,22.92
2018-06-27T16:53:53.062Z,22.88
2018-06-27T16:56:19.415Z,22.90
2018-06-27T16:58:45.798Z,22.90
2018-06-27T17:01:12.357Z,22.87
2018-06-27T17:03:38.582Z,22.82
2018-06-27T17:06:05.011Z,22.85
2018-06-27T17:08:31.380Z,22.87
2018-06-27T17:11:04.817Z,22.94
2018-06-27T17:13:31.373Z,22.95
2018-06-27T17:15:57.793Z,22.98
2018-06-27T17:18:24.139Z,22.98
2018-06-27T17:34:03.280Z,23.03
2018-06-27T17:36:30.254Z,23.05
2018-06-27T17:38:56.828Z,23.05
2018-06-27T17:41:23.228Z,23.05
2018-06-27T17:43:49.556Z,23.01
2018-06-27T17:46:16.231Z,23.01
2018-06-27T17:48:42.713Z,22.98
2018-06-27T17:51:09.073Z,22.96
2018-06-27T17:53:35.501Z,22.95
2018-06-27T17:56:01.986Z,22.92
2018-06-27T17:58:28.512Z,22.92
2018-06-27T18:00:54.984Z,22.90
2018-06-27T18:03:21.396Z,22.88
2018-06-27T18:05:48.151Z,22.86
2018-06-27T18:08:14.473Z,22.84
2018-06-27T18:10:40.824Z,22.83
2018-06-27T18:13:07.231Z,22.84
2018-06-27T18:15:33.815Z,22.82
2018-06-27T18:18:00.252Z,22.82
2018-06-27T18:20:26.590Z,22.81
2018-06-27T18:22:52.975Z,22.81
2018-06-27T18:25:19.359Z,22.77
2018-06-27T18:27:45.880Z,22.78
2018-06-27T18:30:12.212Z,22.77
2018-06-27T18:32:38.674Z,22.76
2018-06-27T18:35:05.004Z,22.75
2018-06-27T18:37:31.480Z,22.73
2018-06-27T18:39:57.849Z,22.71
2018-06-27T18:42:24.340Z,22.75
2018-06-27T18:44:50.705Z,22.73
2018-06-27T18:47:17.073Z,22.72
2018-06-27T18:49:43.624Z,22.70
2018-06-27T18:52:10.095Z,22.70
2018-06-27T18:54:36.541Z,22.68
2018-06-27T18:57:02.911Z,22.66
2018-06-27T18:59:29.284Z,22.68
2018-06-27T19:01:55.836Z,22.67
2018-06-27T19:04:22.300Z,22.65
2018-06-27T19:06:49.028Z,22.65
2018-06-27T19:09:15.425Z,22.64
2018-06-27T19:11:41.854Z,22.67
2018-06-27T19:14:08.208Z,22.63
2018-06-27T19:16:34.591Z,22.61
2018-06-27T19:19:01.334Z,22.64
2018-06-27T19:21:27.677Z,22.60
2018-06-27T19:23:54.104Z,22.60
2018-06-27T19:26:20.582Z,22.65
2018-06-27T19:28:47.020Z,22.58
2018-06-27T19:31:13.440Z,22.58
2018-06-27T19:33:39.787Z,22.61
2018-06-27T19:36:06.485Z,22.56
2018-06-27T19:38:32.846Z,22.55
2018-06-27T19:40:59.445Z,22.60
2018-06-27T19:43:25.748Z,22.56
2018-06-27T19:45:52.105Z,22.55
2018-06-27T19:48:18.436Z,22.53
2018-06-27T19:50:44.791Z,22.51
2018-06-27T19:53:11.359Z,22.53
2018-06-27T19:55:37.734Z,22.53
2018-06-27T19:58:04.283Z,22.54
2018-06-27T20:00:30.842Z,22.54
2018-06-27T20:02:57.204Z,22.51
2018-06-27T20:05:23.545Z,22.49
2018-06-27T20:07:49.976Z,22.51
2018-06-27T20:10:16.329Z,22.50
2018-06-27T20:12:42.761Z,22.51
2018-06-27T20:15:09.207Z,22.52
2018-06-27T20:17:35.493Z,22.47
2018-06-27T20:20:01.886Z,22.49
2018-06-27T20:22:28.300Z,22.50
2018-06-27T20:24:54.585Z,22.48
2018-06-27T20:27:20.944Z,22.47
2018-06-27T20:29:55.421Z,22.44
2018-06-27T20:32:21.872Z,22.44
2018-06-27T20:34:48.229Z,22.42
2018-06-27T20:37:14.657Z,22.39
2018-06-27T20:39:40.957Z,22.38
2018-06-27T20:42:07.326Z,22.35
2018-06-27T20:44:33.690Z,22.34
2018-06-27T20:47:00.226Z,22.31
2018-06-27T20:49:26.873Z,22.32
2018-06-27T20:51:53.243Z,22.27
2018-06-27T20:54:19.889Z,22.26
2018-06-27T20:56:46.302Z,22.25
2018-06-27T20:59:12.788Z,22.25
2018-06-27T21:01:39.265Z,22.24
2018-06-27T21:04:05.800Z,22.23
2018-06-27T21:06:32.420Z,22.21
2018-06-27T21:08:59.031Z,22.20
2018-06-27T21:11:25.809Z,22.18
2018-06-27T21:13:52.196Z,22.18
2018-06-27T21:16:18.553Z,22.17
2018-06-27T21:18:45.556Z,22.16
2018-06-27T21:21:11.923Z,22.12
2018-06-27T21:23:38.305Z,22.17
2018-06-27T21:26:04.827Z,22.10
2018-06-27T21:28:31.100Z,22.11
2018-06-27T21:30:57.453Z,22.13
2018-06-27T21:33:23.829Z,22.12
2018-06-27T21:35:50.245Z,22.07
2018-06-27T21:38:16.594Z,22.08
2018-06-27T21:40:42.956Z,22.07
2018-06-27T21:43:09.339Z,22.08
2018-06-27T21:45:35.802Z,22.04
2018-06-27T21:48:02.378Z,22.02
2018-06-27T21:50:36.523Z,22.04
2018-06-27T21:53:02.991Z,22.05
2018-06-27T21:55:29.532Z,22.01
2018-06-27T21:57:56.037Z,22.01
2018-06-27T22:11:05.274Z,21.97
2018-06-27T22:13:31.700Z,21.93
2018-06-27T22:15:58.036Z,21.95
2018-06-27T22:18:24.399Z,21.94
2018-06-27T22:31:32.052Z,21.89
2018-06-27T22:33:58.379Z,21.90
2018-06-27T22:36:24.800Z,21.90
2018-06-27T22:38:51.160Z,21.92
2018-06-27T22:41:17.528Z,21.91
2018-06-27T22:43:44.052Z,21.91
2018-06-27T22:46:10.373Z,21.87
2018-06-27T22:48:36.971Z,21.85
2018-06-27T22:51:03.416Z,21.87
2018-06-27T22:53:29.890Z,21.87
2018-06-27T22:55:56.251Z,21.84
2018-06-27T22:58:22.604Z,21.85
2018-06-27T23:00:48.936Z,21.83
2018-06-27T23:03:15.329Z,21.82
2018-06-27T23:05:41.718Z,21.83
2018-06-27T23:08:08.122Z,21.81
2018-06-27T23:10:34.591Z,21.81
2018-06-27T23:13:01.330Z,21.83
2018-06-27T23:15:27.715Z,21.80
2018-06-27T23:17:54.198Z,21.79
2018-06-27T23:20:20.627Z,21.79
2018-06-27T23:22:47.140Z,21.79
2018-06-27T23:25:13.670Z,21.75
2018-06-27T23:27:40.009Z,21.78
2018-06-27T23:30:06.419Z,21.79
2018-06-27T23:32:32.948Z,21.77
2018-06-27T23:34:59.419Z,21.77
2018-06-27T23:37:25.894Z,21.76
2018-06-27T23:39:52.333Z,21.78
2018-06-27T23:42:18.664Z,21.75
2018-06-27T23:44:45.259Z,21.74
2018-06-27T23:47:11.685Z,21.75
2018-06-27T23:49:38.184Z,21.75
2018-06-27T23:52:04.590Z,21.68
2018-06-27T23:54:31.632Z,21.74
2018-06-27T23:56:58.178Z,21.73
2018-06-27T23:59:24.788Z,21.70
